Time;durP1;ratioP1;P1;durP2;ratioP2;P2;SDS_P1;SDS_P2;PMS_P1;PMS_P2;Temp;Humidity;BMP_temperature;BMP_pressure;BME280_temperature;BME280_humidity;BME280_pressure;Samples;Min_cycle;Max_cycle;Signal;HPM_P1;HPM_P2
2022/11/18 00:00:55;;;;;;;1.57;0.57;;;;;;;8.25;nan;96301.81;5039905;28;20229;-70
2022/11/18 00:03:22;;;;;;;0.50;0.50;;;;;;;8.31;nan;96302.66;5040010;28;20215;-70
2022/11/18 00:05:56;;;;;;;0.40;0.40;;;;;;;8.25;nan;96298.34;5039870;28;20252;-70
2022/11/18 00:08:23;;;;;;;1.50;0.50;;;;;;;8.21;nan;96302.53;5039874;28;20212;-70
2022/11/18 00:10:50;;;;;;;0.53;0.50;;;;;;;8.27;nan;96306.84;5039860;28;20228;-70
2022/11/18 00:16:07;;;;;;;1.80;0.50;;;;;;;8.24;nan;96297.56;5039675;28;20316;-70
2022/11/18 00:18:34;;;;;;;0.40;0.40;;;;;;;8.23;nan;96292.53;5039510;28;20186;-70
2022/11/18 00:21:02;;;;;;;1.50;0.50;;;;;;;8.22;nan;96293.56;5039374;28;20229;-70
2022/11/18 00:23:29;;;;;;;0.53;0.50;;;;;;;8.19;nan;96305.41;5039548;28;20218;-70
2022/11/18 00:25:56;;;;;;;0.70;0.40;;;;;;;8.15;nan;96296.34;5039595;28;20236;-70
2022/11/18 00:28:22;;;;;;;0.50;0.50;;;;;;;8.19;nan;96297.47;5039683;28;20213;-70
2022/11/18 00:30:48;;;;;;;0.40;0.30;;;;;;;8.24;nan;96299.41;5039517;28;20225;-70
2022/11/18 00:33:16;;;;;;;1.57;0.30;;;;;;;8.26;nan;96294.66;5039559;28;20225;-70
2022/11/18 00:35:42;;;;;;;0.73;0.40;;;;;;;8.25;nan;96295.72;5039513;28;20201;-70
2022/11/18 00:38:09;;;;;;;0.50;0.50;;;;;;;8.25;nan;96307.13;5039525;28;20202;-70
2022/11/18 00:40:35;;;;;;;1.03;0.40;;;;;;;8.19;nan;96296.69;5039515;28;20233;-70
2022/11/18 00:43:00;;;;;;;0.83;0.47;;;;;;;8.21;nan;96311.28;5039294;28;20209;-70
2022/11/18 00:45:27;;;;;;;0.50;0.40;;;;;;;8.28;nan;96308.47;5039524;28;20212;-70
2022/11/18 00:47:53;;;;;;;1.23;0.40;;;;;;;8.22;nan;96307.59;5039601;28;20217;-70
2022/11/18 00:50:20;;;;;;;1.03;0.40;;;;;;;8.29;nan;96307.41;5039101;28;20687;-70
2022/11/18 00:52:46;;;;;;;0.40;0.40;;;;;;;8.22;nan;96309.44;5039539;28;20210;-70
2022/11/18 00:55:12;;;;;;;0.33;0.33;;;;;;;8.21;nan;96310.47;5039508;28;20209;-70
2022/11/18 00:57:39;;;;;;;1.00;0.60;;;;;;;8.22;nan;96302.31;5036039;28;20206;-70
2022/11/18 01:00:06;;;;;;;0.50;0.50;;;;;;;8.20;nan;96309.66;5036246;28;20206;-70
2022/11/18 01:02:33;;;;;;;1.00;0.60;;;;;;;8.17;nan;96304.84;5036360;28;20214;-70
2022/11/18 01:04:59;;;;;;;1.97;0.70;;;;;;;8.16;nan;96313.03;5036250;28;20205;-70
2022/11/18 01:07:25;;;;;;;0.83;0.50;;;;;;;8.19;nan;96307.25;5036051;28;20226;-70
2022/11/18 01:09:52;;;;;;;1.10;0.50;;;;;;;8.13;nan;96313.53;5036209;28;20212;-70
2022/11/18 01:15:02;;;;;;;0.50;0.50;;;;;;;8.13;nan;96308.22;5035887;28;20169;-70
2022/11/18 01:17:32;;;;;;;2.10;0.60;;;;;;;8.12;nan;96311.94;5036035;28;20213;-70
2022/11/18 01:19:58;;;;;;;0.70;0.50;;;;;;;8.11;nan;96313.75;5035811;28;20206;-70
2022/11/18 01:22:25;;;;;;;1.23;0.50;;;;;;;8.06;nan;96312.91;5035610;28;20234;-70
2022/11/18 01:24:51;;;;;;;1.93;0.53;;;;;;;8.17;nan;96318.09;5035909;28;20210;-70
2022/11/18 01:27:18;;;;;;;1.57;0.60;;;;;;;8.09;nan;96309.75;5035794;28;20236;-70
2022/11/18 01:29:44;;;;;;;1.97;0.60;;;;;;;8.07;nan;96319.81;5035803;28;20289;-70
2022/11/18 01:32:10;;;;;;;1.50;0.50;;;;;;;8.13;nan;96319.63;5035686;28;20222;-70
2022/11/18 01:34:37;;;;;;;0.73;0.50;;;;;;;8.13;nan;96324.09;5035711;28;20206;-70
2022/11/18 01:37:03;;;;;;;4.40;0.90;;;;;;;8.12;nan;96309.28;5035893;28;20285;-70
2022/11/18 01:39:30;;;;;;;2.53;0.60;;;;;;;8.08;nan;96321.41;5035449;28;20206;-70
2022/11/18 01:41:56;;;;;;;1.90;0.60;;;;;;;8.12;nan;96325.16;5035387;28;20236;-70
2022/11/18 01:44:54;;;;;;;2.00;0.80;;;;;;;8.15;nan;96327.31;5035535;28;20284;-69
2022/11/18 01:47:21;;;;;;;2.27;0.77;;;;;;;8.22;nan;96333.25;5034989;28;20226;-70
2022/11/18 01:49:47;;;;;;;1.73;0.57;;;;;;;8.16;nan;96326.28;5035346;28;20206;-70
2022/11/18 01:52:14;;;;;;;1.40;0.60;;;;;;;8.16;nan;96328.91;5035183;28;20602;-69
2022/11/18 01:54:48;;;;;;;0.90;0.43;;;;;;;8.19;nan;96333.72;5035261;28;20209;-70
2022/11/18 01:57:21;;;;;;;1.60;0.50;;;;;;;8.16;nan;96342.16;5035270;28;20200;-70
2022/11/18 01:59:50;;;;;;;1.40;0.60;;;;;;;8.14;nan;96336.31;5034970;28;20641;-70
2022/11/18 02:02:17;;;;;;;0.73;0.57;;;;;;;8.15;nan;96340.56;5035102;28;20234;-70
2022/11/18 02:04:47;;;;;;;2.70;0.70;;;;;;;8.12;nan;96346.31;5034786;28;20539;-69
2022/11/18 02:07:13;;;;;;;0.80;0.53;;;;;;;8.08;nan;96345.22;5034705;28;20223;-70
2022/11/18 02:09:40;;;;;;;2.37;0.60;;;;;;;8.10;nan;96343.91;5034759;28;20202;-70
2022/11/18 02:12:08;;;;;;;3.87;0.60;;;;;;;8.07;nan;96347.06;5034899;28;20260;-70
2022/11/18 02:14:39;;;;;;;2.40;0.53;;;;;;;8.10;nan;96348.44;5034990;28;20202;-69
2022/11/18 02:17:23;;;;;;;0.77;0.60;;;;;;;8.13;nan;96355.88;5035177;28;20205;-70
2022/11/18 02:20:08;;;;;;;0.97;0.60;;;;;;;8.15;nan;96354.56;5034512;28;20282;-69
2022/11/18 02:23:39;;;;;;;1.27;0.40;;;;;;;8.15;nan;96361.72;5034486;28;20214;-69
2022/11/18 02:26:30;;;;;;;0.77;0.40;;;;;;;8.14;nan;96357.50;4992964;28;20233;-70
2022/11/18 02:29:02;;;;;;;0.87;0.40;;;;;;;8.14;nan;96355.63;4992928;28;20319;-69
2022/11/18 02:31:49;;;;;;;0.43;0.30;;;;;;;8.13;nan;96366.44;5028677;28;20705;-69
2022/11/18 02:34:35;;;;;;;1.23;0.50;;;;;;;8.09;nan;96360.03;5034615;28;20205;-69
2022/11/18 02:37:30;;;;;;;0.73;0.40;;;;;;;8.08;nan;96361.91;5034589;28;20553;-70
2022/11/18 02:40:11;;;;;;;2.03;0.50;;;;;;;8.16;nan;96365.97;5034475;28;20205;-70
2022/11/18 02:42:41;;;;;;;0.63;0.40;;;;;;;8.14;nan;96374.16;5034167;28;20530;-69
2022/11/18 02:45:16;;;;;;;0.43;0.37;;;;;;;8.11;nan;96371.19;5034429;28;20201;-69
2022/11/18 02:47:45;;;;;;;0.77;0.40;;;;;;;8.10;nan;96366.97;5032873;28;20668;-69
2022/11/18 02:50:16;;;;;;;1.27;0.40;;;;;;;8.09;nan;96367.97;5034285;28;20206;-69
2022/11/18 02:52:46;;;;;;;1.47;0.50;;;;;;;8.05;nan;96369.53;5034852;28;20201;-69
2022/11/18 02:55:14;;;;;;;2.43;0.63;;;;;;;8.01;nan;96365.78;5033866;28;20571;-69
2022/11/18 02:57:43;;;;;;;2.13;0.53;;;;;;;8.03;nan;96371.59;5033833;28;20213;-69
2022/11/18 03:00:10;;;;;;;0.30;0.30;;;;;;;8.04;nan;96371.38;5033771;28;20220;-69
2022/11/18 03:02:42;;;;;;;2.73;0.60;;;;;;;8.02;nan;96375.31;5034082;28;20201;-70
2022/11/18 03:05:18;;;;;;;1.13;0.43;;;;;;;8.03;nan;96382.19;5034047;28;20210;-69
2022/11/18 03:07:50;;;;;;;0.43;0.30;;;;;;;8.07;nan;96396.53;5033699;28;20220;-69
2022/11/18 03:10:19;;;;;;;2.80;0.47;;;;;;;8.09;nan;96391.78;5033878;28;20199;-70
2022/11/18 03:13:16;;;;;;;1.70;0.40;;;;;;;8.12;nan;96404.56;5033541;28;20217;-69
2022/11/18 03:16:00;;;;;;;1.30;0.50;;;;;;;8.07;nan;96399.19;5029029;28;20260;-70
2022/11/18 03:19:00;;;;;;;1.10;0.50;;;;;;;8.06;nan;96413.47;5033818;28;20210;-69
2022/11/18 03:21:37;;;;;;;0.57;0.47;;;;;;;8.02;nan;96412.34;5031783;28;20230;-69
2022/11/18 03:24:25;;;;;;;0.67;0.57;;;;;;;8.03;nan;96413.94;5033498;28;20677;-69
2022/11/18 03:27:01;;;;;;;1.17;0.53;;;;;;;8.01;nan;96418.69;5033682;28;20232;-69
2022/11/18 03:29:36;;;;;;;1.40;0.60;;;;;;;8.01;nan;96424.75;5032521;28;20190;-70
2022/11/18 03:32:27;;;;;;;1.57;0.50;;;;;;;8.07;nan;96430.94;5033647;28;20232;-70
2022/11/18 03:35:05;;;;;;;0.80;0.57;;;;;;;8.03;nan;96429.81;5033566;28;20194;-69
2022/11/18 03:37:34;;;;;;;1.17;0.40;;;;;;;8.01;nan;96434.56;5033589;28;20617;-69
2022/11/18 03:40:22;;;;;;;1.87;0.47;;;;;;;8.07;nan;96447.63;5033601;28;20206;-69
2022/11/18 03:43:08;;;;;;;0.40;0.40;;;;;;;8.07;nan;96446.81;5033553;28;20194;-69
2022/11/18 03:45:41;;;;;;;1.93;0.43;;;;;;;8.08;nan;96454.53;5033369;28;20198;-69
2022/11/18 03:48:18;;;;;;;0.30;0.30;;;;;;;7.99;nan;96455.16;5033138;28;20217;-69
2022/11/18 03:50:53;;;;;;;0.60;0.40;;;;;;;8.00;nan;96457.56;5032017;28;20708;-69
2022/11/18 03:53:22;;;;;;;1.33;0.60;;;;;;;8.02;nan;96467.91;5033165;28;20630;-70
2022/11/18 03:55:54;;;;;;;1.77;0.50;;;;;;;7.99;nan;96466.56;5033086;28;20641;-70
2022/11/18 03:58:28;;;;;;;1.03;0.40;;;;;;;8.01;nan;96469.75;5032006;28;20638;-70
2022/11/18 04:01:04;;;;;;;4.23;0.63;;;;;;;7.99;nan;96473.69;5032923;28;20227;-69
2022/11/18 04:03:30;;;;;;;1.17;0.60;;;;;;;7.98;nan;96482.66;5033325;28;20196;-69
2022/11/18 04:06:39;;;;;;;2.13;0.63;;;;;;;7.96;nan;96482.13;5033198;28;20210;-69
2022/11/18 04:09:20;;;;;;;1.27;0.70;;;;;;;7.95;nan;96477.84;4991821;28;20207;-70
2022/11/18 04:12:03;;;;;;;0.63;0.63;;;;;;;7.96;nan;96474.19;4991508;28;20418;-69
2022/11/18 04:14:38;;;;;;;0.97;0.50;;;;;;;7.96;nan;96482.13;5019741;28;20209;-69
2022/11/18 04:17:09;;;;;;;0.50;0.50;;;;;;;7.97;nan;96489.78;5033203;28;20217;-69
2022/11/18 04:19:36;;;;;;;1.20;0.40;;;;;;;7.96;nan;96482.13;5033466;28;20296;-69
2022/11/18 04:22:03;;;;;;;1.20;0.60;;;;;;;7.91;nan;96485.47;5032658;28;20238;-70
2022/11/18 04:24:29;;;;;;;0.90;0.60;;;;;;;7.95;nan;96486.59;5033113;28;20233;-69
2022/11/18 04:26:55;;;;;;;1.27;0.67;;;;;;;7.92;nan;96488.94;5032962;28;20230;-70
2022/11/18 04:29:22;;;;;;;1.33;0.60;;;;;;;7.85;nan;96491.72;5032760;28;20293;-70
2022/11/18 04:31:48;;;;;;;1.40;0.40;;;;;;;7.82;nan;96494.84;5034024;28;20731;-69
2022/11/18 04:34:15;;;;;;;3.03;0.50;;;;;;;7.83;nan;96500.94;5036566;28;20217;-69
2022/11/18 04:36:41;;;;;;;0.67;0.30;;;;;;;7.82;nan;96507.25;5036375;28;20562;-69
2022/11/18 04:39:08;;;;;;;1.10;0.50;;;;;;;7.74;nan;96505.03;5036222;28;20218;-69
2022/11/18 04:44:18;;;;;;;0.50;0.30;;;;;;;7.62;nan;96506.91;5036568;28;20600;-69
2022/11/18 04:46:45;;;;;;;0.20;0.20;;;;;;;7.54;nan;96504.66;5036425;28;20245;-69
2022/11/18 04:49:14;;;;;;;1.03;0.20;;;;;;;7.55;nan;96508.91;5036430;28;20216;-69
2022/11/18 04:51:42;;;;;;;0.10;0.10;;;;;;;7.50;nan;96509.63;5036397;28;20259;-69
2022/11/18 04:54:09;;;;;;;1.03;0.20;;;;;;;7.52;nan;96512.81;5036026;28;20201;-69
2022/11/18 04:56:35;;;;;;;0.20;0.20;;;;;;;7.42;nan;96509.22;5035813;28;20206;-69
2022/11/18 04:59:03;;;;;;;0.23;0.20;;;;;;;7.33;nan;96507.97;5035886;28;20232;-69
2022/11/18 05:01:30;;;;;;;0.90;0.40;;;;;;;7.30;nan;96508.44;5036062;28;20236;-69
2022/11/18 05:03:56;;;;;;;0.10;0.10;;;;;;;7.30;nan;96511.91;5036007;28;20216;-69
2022/11/18 05:06:23;;;;;;;0.30;0.10;;;;;;;7.30;nan;96521.66;5035602;28;20209;-69
2022/11/18 05:08:50;;;;;;;0.20;0.20;;;;;;;7.20;nan;96514.31;5036033;28;20202;-69
2022/11/18 05:14:00;;;;;;;0.40;0.20;;;;;;;7.24;nan;96517.31;5036089;28;20174;-69
2022/11/18 05:16:26;;;;;;;0.40;0.23;;;;;;;7.22;nan;96533.41;5035946;28;20201;-69
2022/11/18 05:18:52;;;;;;;0.93;0.20;;;;;;;7.15;nan;96524.78;5035609;28;20669;-69
2022/11/18 05:21:19;;;;;;;0.93;0.20;;;;;;;7.19;nan;96523.28;5035343;28;20222;-69
2022/11/18 05:23:45;;;;;;;0.80;0.40;;;;;;;7.23;nan;96531.53;5035362;28;20191;-69
2022/11/18 05:26:12;;;;;;;0.47;0.23;;;;;;;7.25;nan;96532.13;5035312;28;20669;-70
2022/11/18 05:28:39;;;;;;;0.73;0.30;;;;;;;7.30;nan;96534.88;5035627;28;20228;-70
2022/11/18 05:31:15;;;;;;;0.80;0.30;;;;;;;7.28;nan;96542.25;5035110;28;20677;-69
2022/11/18 05:33:42;;;;;;;0.50;0.20;;;;;;;7.27;nan;96537.97;5035520;28;20204;-70
2022/11/18 05:36:13;;;;;;;1.03;0.27;;;;;;;7.33;nan;96539.69;5035358;28;20210;-70
2022/11/18 05:38:39;;;;;;;0.60;0.30;;;;;;;7.30;nan;96538.31;5035466;28;20191;-69
2022/11/18 05:41:06;;;;;;;0.20;0.20;;;;;;;7.29;nan;96541.19;5035022;28;20233;-70
2022/11/18 05:43:33;;;;;;;0.20;0.20;;;;;;;7.31;nan;96547.84;5034398;28;20208;-70
2022/11/18 05:46:00;;;;;;;0.10;0.10;;;;;;;7.37;nan;96551.41;5034753;28;20202;-70
2022/11/18 05:48:26;;;;;;;1.23;0.17;;;;;;;7.32;nan;96554.75;5034856;28;20230;-69
2022/11/18 05:50:54;;;;;;;0.30;0.30;;;;;;;7.31;nan;96557.63;5035645;28;20229;-69
2022/11/18 05:53:23;;;;;;;0.83;0.27;;;;;;;7.33;nan;96558.97;5035133;28;20236;-70
2022/11/18 05:56:18;;;;;;;0.20;0.20;;;;;;;7.28;nan;96558.09;5035197;28;20209;-70
2022/11/18 05:58:45;;;;;;;0.30;0.30;;;;;;;7.30;nan;96561.31;5035542;28;20222;-70
2022/11/18 06:01:14;;;;;;;0.30;0.30;;;;;;;7.30;nan;96561.31;5034845;28;20581;-69
2022/11/18 06:03:41;;;;;;;0.73;0.30;;;;;;;7.25;nan;96569.94;5034496;28;20605;-70
2022/11/18 06:06:13;;;;;;;0.20;0.20;;;;;;;7.26;nan;96578.66;5034341;28;20622;-70
2022/11/18 06:08:48;;;;;;;0.27;0.20;;;;;;;7.20;nan;96571.66;5034884;28;20301;-70
2022/11/18 06:11:18;;;;;;;0.70;0.37;;;;;;;7.26;nan;96578.66;5034769;28;20221;-70
2022/11/18 06:13:51;;;;;;;0.30;0.30;;;;;;;7.29;nan;96581.63;5035350;28;20205;-70
2022/11/18 06:16:23;;;;;;;1.13;0.30;;;;;;;7.26;nan;96578.66;5034651;28;20205;-70
2022/11/18 06:18:49;;;;;;;1.43;0.30;;;;;;;7.18;nan;96587.75;5033944;28;20189;-69
2022/11/18 06:21:16;;;;;;;0.37;0.30;;;;;;;7.20;nan;96590.97;5033866;28;20229;-70
2022/11/18 06:23:43;;;;;;;0.77;0.30;;;;;;;7.14;nan;96589.25;5033995;28;20679;-70
2022/11/18 06:26:11;;;;;;;0.63;0.30;;;;;;;7.21;nan;96591.78;5033833;28;20230;-70
2022/11/18 06:28:38;;;;;;;0.40;0.30;;;;;;;7.22;nan;96601.31;5034255;28;20218;-70
2022/11/18 06:31:04;;;;;;;0.50;0.20;;;;;;;7.22;nan;96590.72;5034147;28;20304;-69
2022/11/18 06:33:31;;;;;;;0.37;0.30;;;;;;;7.20;nan;96598.09;5033563;28;20692;-70
2022/11/18 06:35:57;;;;;;;0.20;0.20;;;;;;;7.21;nan;96602.34;5033870;28;20206;-70
2022/11/18 06:38:24;;;;;;;0.40;0.33;;;;;;;7.23;nan;96603.72;5033916;28;20208;-70
2022/11/18 06:40:51;;;;;;;0.17;0.17;;;;;;;7.22;nan;96602.13;5033930;28;20221;-70
2022/11/18 06:48:48;;;;;;;0.83;0.20;;;;;;;7.31;nan;96618.41;5034077;28;20205;-70
2022/11/18 06:51:15;;;;;;;0.20;0.20;;;;;;;7.35;nan;96615.09;5033232;28;20605;-70
2022/11/18 06:53:41;;;;;;;0.30;0.30;;;;;;;7.32;nan;96620.00;5033371;28;20228;-70
2022/11/18 06:56:10;;;;;;;1.33;0.43;;;;;;;7.34;nan;96621.38;5032697;28;20206;-70
2022/11/18 06:58:37;;;;;;;0.30;0.30;;;;;;;7.34;nan;96625.88;5033526;28;20207;-70
2022/11/18 07:01:18;;;;;;;2.47;0.30;;;;;;;7.25;nan;96627.28;5033531;28;20222;-70
2022/11/18 07:03:46;;;;;;;0.50;0.40;;;;;;;7.29;nan;96629.22;5033407;28;20241;-70
2022/11/18 07:06:14;;;;;;;0.57;0.40;;;;;;;7.29;nan;96636.34;5033478;28;20213;-70
2022/11/18 07:08:41;;;;;;;0.30;0.30;;;;;;;7.37;nan;96636.00;5033076;28;20228;-70
2022/11/18 07:11:11;;;;;;;1.13;0.50;;;;;;;7.34;nan;96641.75;5033400;28;20712;-70
2022/11/18 07:13:37;;;;;;;1.70;0.50;;;;;;;7.38;nan;96638.38;5033072;28;20209;-70
2022/11/18 07:16:05;;;;;;;0.40;0.40;;;;;;;7.42;nan;96649.31;5033335;28;20202;-70
2022/11/18 07:18:33;;;;;;;0.60;0.60;;;;;;;7.38;nan;96650.81;5033330;28;20202;-70
2022/11/18 07:21:11;;;;;;;0.40;0.40;;;;;;;7.44;nan;96653.34;5032912;28;20731;-70
2022/11/18 07:23:38;;;;;;;0.30;0.30;;;;;;;7.45;nan;96660.22;5033609;28;20206;-70
2022/11/18 07:26:05;;;;;;;0.37;0.37;;;;;;;7.48;nan;96658.97;5033103;28;20212;-70
2022/11/18 07:28:32;;;;;;;1.07;0.40;;;;;;;7.41;nan;96664.38;5032786;28;20218;-70
2022/11/18 07:31:03;;;;;;;0.97;0.50;;;;;;;7.39;nan;96665.63;5032840;28;20318;-70
2022/11/18 07:33:30;;;;;;;1.30;0.40;;;;;;;7.45;nan;96668.16;5033066;28;20292;-70
2022/11/18 07:36:04;;;;;;;0.77;0.50;;;;;;;7.53;nan;96672.28;5033440;28;20202;-70
2022/11/18 07:38:31;;;;;;;0.87;0.50;;;;;;;7.53;nan;96672.28;5033257;28;20191;-70
2022/11/18 07:41:04;;;;;;;1.23;0.50;;;;;;;7.59;nan;96676.63;5033134;28;20234;-70
2022/11/18 07:43:32;;;;;;;0.97;0.37;;;;;;;7.51;nan;96674.38;5033101;28;20207;-70
2022/11/18 07:45:58;;;;;;;1.90;0.50;;;;;;;7.49;nan;96681.72;5033093;28;20201;-70
2022/11/18 07:48:24;;;;;;;2.57;0.63;;;;;;;7.55;nan;96684.22;5032615;28;20587;-70
2022/11/18 07:50:51;;;;;;;0.50;0.50;;;;;;;7.58;nan;96686.41;5033030;28;20233;-70
2022/11/18 07:53:17;;;;;;;1.70;0.47;;;;;;;7.59;nan;96689.84;5032580;28;20662;-70
2022/11/18 07:55:44;;;;;;;0.70;0.43;;;;;;;7.62;nan;96692.03;5033382;28;20577;-70
2022/11/18 07:58:10;;;;;;;0.83;0.40;;;;;;;7.67;nan;96692.94;5032101;28;20614;-70
2022/11/18 08:00:36;;;;;;;0.50;0.50;;;;;;;7.58;nan;96698.81;5032627;28;20596;-70
2022/11/18 08:03:03;;;;;;;0.70;0.50;;;;;;;7.67;nan;96708.00;5032892;28;20206;-70
2022/11/18 08:05:30;;;;;;;0.60;0.60;;;;;;;7.66;nan;96709.88;5033315;28;20207;-70
2022/11/18 08:07:57;;;;;;;1.73;0.77;;;;;;;7.69;nan;96714.66;5036802;28;20561;-70
2022/11/18 08:10:23;;;;;;;3.20;1.33;;;;;;;7.79;nan;96712.22;5037136;28;20228;-70
2022/11/18 08:12:50;;;;;;;2.70;1.60;;;;;;;7.76;nan;96710.06;5037124;28;20301;-70
2022/11/18 08:15:16;;;;;;;2.30;1.10;;;;;;;7.80;nan;96721.78;5036628;28;20216;-70
2022/11/18 08:17:42;;;;;;;1.53;1.03;;;;;;;7.84;nan;96722.13;5036666;28;20614;-70
2022/11/18 08:20:09;;;;;;;1.23;0.93;;;;;;;7.93;nan;96724.19;5036691;28;20576;-70
2022/11/18 08:22:36;;;;;;;1.00;0.80;;;;;;;7.98;nan;96728.75;5036373;28;20236;-70
2022/11/18 08:25:02;;;;;;;2.30;1.07;;;;;;;7.90;nan;96737.06;5036290;28;20224;-70
2022/11/18 08:27:28;;;;;;;1.73;0.80;;;;;;;8.06;nan;96739.75;5036408;28;20231;-70
2022/11/18 08:29:55;;;;;;;1.33;0.77;;;;;;;7.95;nan;96735.31;5036645;28;20298;-70
2022/11/18 08:32:21;;;;;;;2.53;1.10;;;;;;;7.80;nan;96742.13;5037388;28;20230;-70
2022/11/18 08:34:47;;;;;;;1.60;0.80;;;;;;;7.85;nan;96742.25;5036630;28;20211;-70
2022/11/18 08:37:14;;;;;;;1.13;0.70;;;;;;;7.87;nan;96743.63;5036667;28;20206;-70
2022/11/18 08:39:40;;;;;;;2.10;0.77;;;;;;;7.84;nan;96746.75;5036438;28;20216;-70
2022/11/18 08:42:06;;;;;;;1.03;0.80;;;;;;;7.95;nan;96748.56;5036205;28;20244;-70
2022/11/18 08:44:33;;;;;;;1.97;0.60;;;;;;;7.98;nan;96748.09;5036077;28;20665;-70
2022/11/18 08:47:00;;;;;;;2.47;0.70;;;;;;;7.98;nan;96749.94;5036467;28;20317;-70
2022/11/18 08:49:27;;;;;;;0.70;0.70;;;;;;;8.03;nan;96758.78;5036350;28;20232;-70
2022/11/18 08:51:53;;;;;;;1.17;0.60;;;;;;;7.99;nan;96748.88;5036160;28;20596;-70
2022/11/18 08:54:20;;;;;;;1.00;0.70;;;;;;;8.11;nan;96755.75;5036034;28;20208;-70
2022/11/18 08:56:49;;;;;;;0.70;0.70;;;;;;;8.15;nan;96761.41;5035873;28;20681;-70
2022/11/18 08:59:15;;;;;;;0.60;0.60;;;;;;;8.21;nan;96760.47;5035810;28;20665;-70
2022/11/18 09:01:42;;;;;;;1.67;0.90;;;;;;;8.19;nan;96765.19;5035936;28;20236;-70
2022/11/18 09:04:10;;;;;;;1.33;0.80;;;;;;;8.25;nan;96767.72;5035932;28;20344;-70
2022/11/18 09:06:37;;;;;;;1.37;0.70;;;;;;;8.29;nan;96766.19;5035984;28;20213;-70
2022/11/18 09:09:04;;;;;;;1.70;0.93;;;;;;;8.28;nan;96771.75;5035762;28;20645;-70
2022/11/18 09:11:30;;;;;;;0.97;0.80;;;;;;;8.24;nan;96774.03;5035947;28;20233;-70
2022/11/18 09:13:58;;;;;;;1.20;0.70;;;;;;;8.36;nan;96772.16;5036554;28;20422;-70
2022/11/18 09:16:27;;;;;;;1.23;0.70;;;;;;;8.38;nan;96774.59;5035725;28;20289;-70
2022/11/18 09:18:55;;;;;;;0.77;0.63;;;;;;;8.40;nan;96783.91;5034412;28;20210;-70
2022/11/18 09:21:22;;;;;;;1.47;0.70;;;;;;;8.40;nan;96783.09;5035707;28;20230;-70
2022/11/18 09:23:48;;;;;;;1.40;0.80;;;;;;;8.34;nan;96786.69;5035111;28;20652;-70
2022/11/18 09:26:18;;;;;;;0.50;0.50;;;;;;;8.32;nan;96784.25;5034970;28;20212;-70
2022/11/18 09:28:44;;;;;;;1.03;0.60;;;;;;;8.22;nan;96778.78;5035268;28;20273;-70
2022/11/18 09:31:13;;;;;;;0.80;0.70;;;;;;;8.33;nan;96779.78;5035411;28;20313;-70
2022/11/18 09:33:40;;;;;;;0.80;0.80;;;;;;;8.27;nan;96791.28;5035237;28;20206;-70
2022/11/18 09:36:17;;;;;;;1.63;0.93;;;;;;;8.27;nan;96793.94;5035432;28;20210;-70
2022/11/18 09:38:44;;;;;;;1.77;0.90;;;;;;;8.21;nan;96793.06;5035269;28;20273;-70
2022/11/18 09:41:18;;;;;;;3.77;0.90;;;;;;;8.12;nan;96791.78;5035100;28;20226;-70
2022/11/18 09:43:59;;;;;;;2.87;0.90;;;;;;;8.13;nan;96800.50;5035052;28;20548;-69
2022/11/18 09:46:48;;;;;;;1.07;0.80;;;;;;;8.08;nan;96795.94;5035140;28;20641;-70
2022/11/18 09:49:36;;;;;;;0.83;0.63;;;;;;;8.11;nan;96794.66;5034150;28;20218;-70
2022/11/18 09:52:12;;;;;;;1.33;0.80;;;;;;;8.20;nan;96799.38;5035073;28;20728;-70
2022/11/18 09:54:39;;;;;;;1.10;1.00;;;;;;;8.21;nan;96798.34;5045947;28;20205;-70
2022/11/18 09:57:21;;;;;;;2.73;1.17;;;;;;;8.16;nan;96808.00;5035159;28;20201;-70
2022/11/18 09:59:47;;;;;;;1.47;0.97;;;;;;;8.28;nan;96804.31;5049121;28;20193;-71
2022/11/18 10:02:13;;;;;;;1.83;0.80;;;;;;;8.32;nan;96810.75;5051253;28;20227;-71
2022/11/18 10:04:40;;;;;;;0.87;0.80;;;;;;;8.35;nan;96809.47;5052518;28;20197;-70
2022/11/18 10:07:16;;;;;;;0.87;0.70;;;;;;;8.36;nan;96809.25;5044762;28;20209;-70
2022/11/18 10:09:44;;;;;;;0.63;0.63;;;;;;;8.47;nan;96818.19;5044708;28;20209;-71
2022/11/18 10:12:27;;;;;;;0.73;0.70;;;;;;;8.53;nan;96822.53;5048960;28;20229;-71
2022/11/18 10:15:08;;;;;;;1.23;0.60;;;;;;;8.51;nan;96827.28;5053871;28;20280;-70
2022/11/18 10:18:01;;;;;;;1.20;0.77;;;;;;;8.54;nan;96829.44;5054562;28;20186;-70
2022/11/18 10:20:30;;;;;;;2.17;0.77;;;;;;;8.52;nan;96823.59;5054613;28;20231;-70
2022/11/18 10:23:28;;;;;;;0.90;0.87;;;;;;;8.52;nan;96829.69;5054700;28;20626;-70
2022/11/18 10:25:55;;;;;;;1.77;0.90;;;;;;;8.54;nan;96821.50;5052149;28;20295;-71
2022/11/18 10:28:28;;;;;;;1.93;0.70;;;;;;;8.47;nan;96831.44;5054314;28;20221;-70
2022/11/18 10:31:03;;;;;;;1.00;0.73;;;;;;;8.45;nan;96839.59;5054281;28;20224;-70
2022/11/18 10:33:29;;;;;;;1.10;0.93;;;;;;;8.48;nan;96833.03;5054085;28;20189;-70
2022/11/18 10:36:27;;;;;;;1.97;1.20;;;;;;;8.63;nan;96833.31;5054296;28;20207;-70
2022/11/18 10:39:14;;;;;;;1.93;1.00;;;;;;;8.66;nan;96833.69;5054204;28;20185;-70
2022/11/18 10:41:51;;;;;;;2.97;1.10;;;;;;;8.66;nan;96833.69;5053995;28;20221;-70
2022/11/18 10:44:39;;;;;;;2.57;1.53;;;;;;;8.75;nan;96847.34;5052770;28;20560;-71
2022/11/18 10:47:27;;;;;;;1.87;1.23;;;;;;;8.69;nan;96843.00;5054016;28;20190;-70
2022/11/18 10:50:02;;;;;;;3.13;1.17;;;;;;;8.78;nan;96842.34;5053612;28;20213;-70
2022/11/18 10:52:29;;;;;;;2.70;1.67;;;;;;;8.87;nan;96840.16;5053913;28;20558;-70
2022/11/18 10:55:08;;;;;;;3.30;1.47;;;;;;;8.95;nan;96835.25;5054836;28;20205;-70
2022/11/18 10:57:42;;;;;;;2.90;1.60;;;;;;;8.93;nan;96841.84;5054623;28;20205;-70
2022/11/18 11:00:45;;;;;;;3.43;1.57;;;;;;;8.95;nan;96842.41;5053374;28;20185;-70
2022/11/18 11:03:31;;;;;;;2.53;1.30;;;;;;;8.94;nan;96844.25;5053805;28;20189;-71
2022/11/18 11:06:21;;;;;;;1.90;1.30;;;;;;;8.86;nan;96841.16;5053460;28;20197;-70
2022/11/18 11:08:52;;;;;;;1.77;1.30;;;;;;;8.79;nan;96845.81;5053711;28;20221;-70
2022/11/18 11:11:29;;;;;;;1.43;1.33;;;;;;;8.77;nan;96848.72;5053375;28;20229;-70
2022/11/18 11:14:06;;;;;;;3.23;1.50;;;;;;;8.75;nan;96842.03;5053624;28;20244;-70
2022/11/18 11:16:39;;;;;;;1.97;1.20;;;;;;;8.67;nan;96847.72;5052479;28;20194;-70
2022/11/18 11:19:11;;;;;;;3.30;1.10;;;;;;;8.72;nan;96845.97;5053149;28;20316;-70
2022/11/18 11:21:37;;;;;;;1.20;1.00;;;;;;;8.64;nan;96850.84;5053393;28;20239;-70
2022/11/18 11:24:11;;;;;;;1.90;1.00;;;;;;;8.69;nan;96849.06;5053415;28;20233;-69
2022/11/18 11:26:56;;;;;;;2.50;1.00;;;;;;;8.74;nan;96851.81;5053266;28;20201;-69
2022/11/18 11:29:35;;;;;;;1.67;0.80;;;;;;;8.76;nan;96856.88;5053158;28;20235;-70
2022/11/18 11:32:30;;;;;;;1.30;0.80;;;;;;;8.76;nan;96862.19;5053260;28;20229;-69
2022/11/18 11:35:12;;;;;;;1.20;0.90;;;;;;;8.76;nan;96852.41;5053399;28;20356;-70
2022/11/18 11:37:53;;;;;;;1.23;0.80;;;;;;;8.83;nan;96857.56;5052971;28;20243;-70
2022/11/18 11:40:32;;;;;;;1.93;1.40;;;;;;;8.93;nan;96852.44;5052654;28;20530;-70
2022/11/18 11:43:19;;;;;;;1.67;0.80;;;;;;;9.03;nan;96857.94;5052804;28;20209;-70
2022/11/18 11:46:04;;;;;;;1.13;1.00;;;;;;;9.04;nan;96854.22;5052895;28;20284;-70
2022/11/18 11:48:42;;;;;;;3.13;1.20;;;;;;;9.08;nan;96856.19;5052921;28;20217;-70
2022/11/18 11:51:25;;;;;;;4.00;1.27;;;;;;;9.28;nan;96861.03;5051850;28;20227;-70
2022/11/18 11:54:16;;;;;;;1.87;1.13;;;;;;;9.32;nan;96868.25;5051733;28;20194;-70
2022/11/18 11:56:50;;;;;;;3.03;1.20;;;;;;;9.50;nan;96881.28;5052780;28;20196;-69
2022/11/18 11:59:25;;;;;;;2.63;1.07;;;;;;;9.45;nan;96867.94;5051549;28;20196;-69
2022/11/18 12:01:54;;;;;;;3.97;1.20;;;;;;;9.50;nan;96877.88;5052587;28;20225;-69
2022/11/18 12:04:24;;;;;;;4.20;1.10;;;;;;;9.48;nan;96869.31;5052829;28;20202;-69
2022/11/18 12:06:53;;;;;;;1.97;0.97;;;;;;;9.50;nan;96872.56;5052438;28;20739;-70
2022/11/18 12:09:31;;;;;;;1.67;0.97;;;;;;;9.44;nan;96870.84;5052782;28;20729;-70
2022/11/18 12:12:41;;;;;;;2.67;1.20;;;;;;;9.55;nan;96869.97;5052839;28;20596;-70
2022/11/18 12:15:15;;;;;;;1.43;0.97;;;;;;;9.44;nan;96874.31;5032543;28;20248;-70
2022/11/18 12:17:51;;;;;;;2.63;1.07;;;;;;;9.43;nan;96871.88;5052863;28;20700;-70
2022/11/18 12:20:38;;;;;;;3.47;1.17;;;;;;;9.30;nan;96872.19;5053218;28;20220;-69
2022/11/18 12:23:21;;;;;;;4.30;0.93;;;;;;;9.28;nan;96875.09;5052587;28;20209;-69
2022/11/18 12:25:48;;;;;;;2.30;0.90;;;;;;;9.17;nan;96877.78;5052387;28;20193;-69
2022/11/18 12:28:29;;;;;;;1.97;0.87;;;;;;;9.17;nan;96880.44;5052336;28;20233;-69
2022/11/18 12:31:18;;;;;;;1.37;0.60;;;;;;;9.06;nan;96892.72;5052221;28;20782;-70
2022/11/18 12:33:48;;;;;;;2.57;0.93;;;;;;;9.05;nan;96885.03;5052079;28;20665;-69
2022/11/18 12:36:36;;;;;;;5.03;0.97;;;;;;;9.11;nan;96889.34;5052429;28;20255;-70
2022/11/18 12:39:24;;;;;;;1.40;1.03;;;;;;;9.14;nan;96888.91;5052240;28;20198;-69